الصفحة الرئيسية
METAR-TAF:

METAR-TAF

مطار :

نيجنكامسك, روسيا

دائرة عرض: 55-33-48N, خط طول: 052-05-42E, ارتفاع: 196 متر

مراقبة الطقس الحالي

تاريخ ووقت الإصدار 26 دقيقة قبل الساعة 00:30UTC
ريح 8 عقدة من الشمال/الشمال الشرقي
درجة الحرارة 14°درجة مئوية
الرطوبة 94%
ضغط 1013 hPa
الرؤية 10 كم أو أكثر
الغيوم لا تقل 1500 م ولا وجود لمزنة ركامية السحاب الأسود

METAR: UWKE 140030Z 02004MPS CAVOK 14/13 Q1013 R03/090070 NOSIG RMK QFE743/0990

زمن: 03:56 (00:56 UTC)

توقعات

تاريخ ووقت الإصدار 2ساعات و 5 دقيقة قبل الساعة 22:51UTC
التوقعات صالحة من14 الساعة 00 UTC إلى 14 الساعة 24 UTC
ريح 6 عقدة من الشمال/الشمال الشرقي تتزايد حتى 17 عقدة
الرؤية 10 كم أو أكثر
غيوم متفرقة على ارتفاع 4000 قدم
مؤقت
من 14 الساعة 00 UTC إلى 14 الساعة 03 UTC
ريح 6 عقدة من الشمال تتزايد حتى 23 عقدة
الرؤية: 0700 متر
غيوم مفككة على ارتفاع 300 قدم
ضباب
مؤقت
من 14 الساعة 03 UTC إلى 14 الساعة 06 UTC
غيوم مفككة على ارتفاع 500 قدم

TAF: UWKE 132251Z 1400/1424 02003G09MPS 9999 SCT040 TEMPO 1400/1403 35003G12MPS 0700 FG BKN003 TEMPO 1403/1406 BKN005

أرصاد الطقس والتوقعات من أكثر من 4000 مطار (تقارير الطقس للمطار METAR والتنبؤ بالطقس بالمطارTAF).

المحطات المتاحة هي النقط الصفراء والحمراء على الخريطة.

حرك المؤشر فوق النقطة لمعرفة اسم المحطة.

ثم انقر لمعرفة أرصاد وتوقعات الطقس.

لتغيير الخارطة: اضغط على الأزرار الخضراء مع رمز الصليب الأسود للتكبير. على الزر الأخضر مع شرطة للتصغير، أو على الأسهم الخضراء للخرائط المجاورة.


METAR-TAF: